Time;durP1;ratioP1;P1;durP2;ratioP2;P2;SDS_P1;SDS_P2;PMS_P1;PMS_P2;Temp;Humidity;BMP_temperature;BMP_pressure;BME280_temperature;BME280_humidity;BME280_pressure;Samples;Min_cycle;Max_cycle;Signal;HPM_P1;HPM_P2
2022/01/29 00:01:22;;;;;;;0.10;0.10;;;1.70;99.90;;;;;;4989535;28;20200;-72
2022/01/29 00:03:51;;;;;;;0.10;0.10;;;1.70;99.90;;;;;;4990134;28;20204;-73
2022/01/29 00:06:18;;;;;;;0.10;0.10;;;1.60;99.90;;;;;;4989968;28;20282;-73
2022/01/29 00:08:46;;;;;;;0.10;0.10;;;1.60;99.90;;;;;;4990711;28;20216;-73
2022/01/29 00:11:16;;;;;;;0.10;0.10;;;1.70;99.90;;;;;;4990155;28;20205;-74
2022/01/29 00:13:44;;;;;;;0.10;0.10;;;1.70;99.90;;;;;;4987826;28;20263;-74
2022/01/29 00:16:13;;;;;;;0.10;0.10;;;1.70;99.90;;;;;;4989757;28;20223;-74
2022/01/29 00:18:41;;;;;;;0.10;0.10;;;1.80;99.90;;;;;;4987511;28;20616;-74
2022/01/29 00:21:09;;;;;;;0.13;0.13;;;1.80;99.90;;;;;;4989189;28;20278;-73
2022/01/29 00:23:37;;;;;;;0.10;0.10;;;1.80;99.90;;;;;;4989790;28;20262;-74
2022/01/29 00:26:05;;;;;;;0.10;0.10;;;1.90;99.90;;;;;;4990176;28;20197;-74
2022/01/29 00:28:34;;;;;;;0.10;0.10;;;1.90;99.90;;;;;;4990446;28;20575;-74
2022/01/29 00:31:03;;;;;;;0.10;0.10;;;1.90;99.90;;;;;;4991066;28;20641;-74
2022/01/29 00:33:32;;;;;;;0.10;0.10;;;2.00;99.90;;;;;;4990597;28;20551;-73
2022/01/29 00:36:00;;;;;;;0.10;0.10;;;2.10;99.90;;;;;;4991841;28;20597;-73
2022/01/29 00:38:27;;;;;;;0.10;0.10;;;2.10;99.90;;;;;;4989670;28;20224;-73
2022/01/29 00:40:55;;;;;;;0.10;0.10;;;2.10;99.90;;;;;;4990569;28;20205;-73
2022/01/29 00:43:23;;;;;;;0.10;0.10;;;2.20;99.90;;;;;;4990130;28;20220;-73
2022/01/29 00:45:51;;;;;;;0.10;0.10;;;2.20;99.90;;;;;;4989319;28;20196;-73
2022/01/29 00:48:19;;;;;;;0.10;0.10;;;2.20;99.90;;;;;;4987943;28;20212;-73
2022/01/29 00:50:48;;;;;;;0.20;0.20;;;2.10;99.90;;;;;;4989821;28;20674;-73
2022/01/29 00:53:16;;;;;;;0.10;0.10;;;2.20;99.90;;;;;;4989922;28;20203;-73
2022/01/29 00:55:45;;;;;;;0.10;0.10;;;2.20;99.90;;;;;;4989241;28;20263;-73
2022/01/29 00:58:12;;;;;;;0.10;0.10;;;2.20;99.90;;;;;;4989803;28;20263;-73
2022/01/29 01:00:40;;;;;;;0.10;0.10;;;2.10;99.90;;;;;;4990145;28;20740;-73
2022/01/29 01:03:08;;;;;;;0.10;0.10;;;2.20;99.90;;;;;;4993265;28;20215;-73
2022/01/29 01:05:36;;;;;;;0.10;0.10;;;2.30;99.90;;;;;;4992905;28;20184;-73
2022/01/29 01:08:07;;;;;;;0.10;0.10;;;2.20;99.90;;;;;;4991885;28;20231;-72
2022/01/29 01:10:35;;;;;;;0.10;0.10;;;2.20;99.90;;;;;;4992350;28;20239;-73
2022/01/29 01:13:03;;;;;;;0.10;0.10;;;2.30;99.90;;;;;;4991235;28;20204;-73
2022/01/29 01:15:31;;;;;;;0.10;0.10;;;2.20;99.90;;;;;;4991746;28;20216;-73
2022/01/29 01:17:59;;;;;;;0.10;0.10;;;2.30;99.90;;;;;;4991979;28;20226;-72
2022/01/29 01:20:27;;;;;;;0.10;0.10;;;2.30;99.90;;;;;;4992295;28;20908;-72
2022/01/29 01:22:55;;;;;;;0.10;0.10;;;2.30;99.90;;;;;;4993023;28;20205;-72
2022/01/29 01:25:24;;;;;;;0.10;0.10;;;2.40;99.90;;;;;;4992276;28;20189;-72
2022/01/29 01:27:52;;;;;;;0.10;0.10;;;2.40;99.90;;;;;;4991112;28;20628;-73
2022/01/29 01:30:20;;;;;;;0.10;0.10;;;2.40;99.90;;;;;;4991804;28;20200;-74
2022/01/29 01:32:50;;;;;;;0.10;0.10;;;2.40;99.90;;;;;;4992183;28;20215;-74
2022/01/29 01:35:22;;;;;;;0.10;0.10;;;2.50;99.90;;;;;;4990664;28;20236;-74
2022/01/29 01:37:54;;;;;;;0.10;0.10;;;2.50;99.90;;;;;;4991643;28;20326;-76
2022/01/29 01:40:25;;;;;;;0.10;0.10;;;2.50;99.90;;;;;;4992329;28;20258;-75
2022/01/29 01:42:59;;;;;;;0.10;0.10;;;2.50;99.90;;;;;;4993061;28;20605;-74
2022/01/29 01:45:27;;;;;;;0.10;0.10;;;2.50;99.90;;;;;;4993637;28;20220;-75
2022/01/29 01:47:55;;;;;;;0.10;0.10;;;2.50;99.90;;;;;;4992583;28;20278;-74
2022/01/29 01:50:23;;;;;;;0.10;0.10;;;2.60;99.90;;;;;;4992113;28;20204;-73
2022/01/29 01:52:51;;;;;;;0.10;0.10;;;2.60;99.90;;;;;;4991127;28;20208;-73
2022/01/29 01:55:19;;;;;;;0.10;0.10;;;2.60;99.90;;;;;;4992013;28;20666;-73
2022/01/29 01:57:48;;;;;;;0.10;0.10;;;2.60;99.90;;;;;;4991513;28;20673;-73
2022/01/29 02:00:16;;;;;;;0.10;0.10;;;2.60;99.90;;;;;;4992165;28;20209;-73
2022/01/29 02:02:44;;;;;;;0.10;0.10;;;2.70;99.90;;;;;;4990723;28;20287;-72
2022/01/29 02:05:13;;;;;;;0.10;0.10;;;2.70;99.90;;;;;;4991116;28;20258;-73
2022/01/29 02:07:41;;;;;;;0.10;0.10;;;2.70;99.90;;;;;;4991585;28;20216;-73
2022/01/29 02:10:10;;;;;;;0.10;0.10;;;2.70;99.90;;;;;;4991608;28;20208;-73
2022/01/29 02:12:51;;;;;;;0.10;0.10;;;2.70;99.90;;;;;;4991180;28;20228;-73
2022/01/29 02:15:20;;;;;;;0.10;0.10;;;2.80;99.90;;;;;;4991462;28;20208;-73
2022/01/29 02:17:49;;;;;;;0.10;0.10;;;2.80;99.90;;;;;;4990900;28;20578;-73
2022/01/29 02:20:19;;;;;;;0.10;0.10;;;2.80;99.90;;;;;;4990070;28;20212;-73
2022/01/29 02:22:48;;;;;;;0.10;0.10;;;2.80;99.90;;;;;;4992176;28;20544;-73
2022/01/29 02:25:32;;;;;;;0.10;0.10;;;2.80;99.90;;;;;;4991224;28;20204;-73
2022/01/29 02:28:01;;;;;;;0.10;0.10;;;2.80;99.90;;;;;;4989592;28;20220;-72
2022/01/29 02:30:32;;;;;;;0.10;0.10;;;2.90;99.90;;;;;;4989810;28;20196;-72
2022/01/29 02:33:02;;;;;;;0.10;0.10;;;2.90;99.90;;;;;;4990326;28;20242;-72
2022/01/29 02:35:30;;;;;;;0.10;0.10;;;2.90;99.90;;;;;;4990350;28;20213;-72
2022/01/29 02:38:02;;;;;;;0.10;0.10;;;2.90;99.90;;;;;;4991178;28;20314;-72
2022/01/29 02:40:35;;;;;;;0.10;0.10;;;2.90;99.90;;;;;;4989820;28;20270;-72
2022/01/29 02:43:13;;;;;;;0.10;0.10;;;2.90;99.90;;;;;;4991394;28;20644;-73
2022/01/29 02:45:43;;;;;;;0.10;0.10;;;2.90;99.90;;;;;;4991605;28;20246;-73
2022/01/29 02:48:11;;;;;;;0.10;0.10;;;2.90;99.90;;;;;;4998836;28;20227;-73
2022/01/29 02:50:41;;;;;;;0.10;0.10;;;2.90;99.90;;;;;;5001916;28;20200;-73
2022/01/29 02:53:10;;;;;;;0.10;0.10;;;2.90;99.90;;;;;;4991727;28;20677;-73
2022/01/29 02:55:38;;;;;;;0.10;0.10;;;2.90;99.90;;;;;;4991392;28;20617;-73
2022/01/29 02:58:06;;;;;;;0.10;0.10;;;2.90;99.90;;;;;;4993202;28;20232;-72
2022/01/29 03:00:34;;;;;;;0.10;0.10;;;2.90;99.90;;;;;;4999915;28;20200;-73
2022/01/29 03:03:03;;;;;;;0.10;0.10;;;2.90;99.90;;;;;;4999015;28;20335;-73
2022/01/29 03:05:31;;;;;;;0.10;0.10;;;3.00;99.90;;;;;;4994106;28;20206;-71
2022/01/29 03:07:58;;;;;;;0.10;0.10;;;2.90;99.90;;;;;;4990746;28;20340;-73
2022/01/29 03:10:28;;;;;;;0.10;0.10;;;2.90;99.90;;;;;;4991014;28;20196;-71
2022/01/29 03:12:56;;;;;;;0.10;0.10;;;2.90;99.90;;;;;;4991356;28;20192;-72
2022/01/29 03:15:24;;;;;;;0.10;0.10;;;3.00;99.90;;;;;;4990844;28;20760;-72
2022/01/29 03:17:52;;;;;;;0.10;0.10;;;3.00;99.90;;;;;;4989406;28;20220;-72
2022/01/29 03:20:19;;;;;;;0.10;0.10;;;3.10;99.90;;;;;;4990787;28;20328;-74
2022/01/29 03:22:47;;;;;;;0.10;0.10;;;3.00;99.90;;;;;;4989476;28;20653;-74
2022/01/29 03:25:16;;;;;;;0.10;0.10;;;3.00;99.90;;;;;;4990282;28;20231;-74
2022/01/29 03:27:45;;;;;;;0.10;0.10;;;3.10;99.90;;;;;;4990006;28;20208;-74
2022/01/29 03:30:13;;;;;;;0.10;0.10;;;3.10;99.90;;;;;;4990807;28;20243;-76
2022/01/29 03:32:41;;;;;;;0.10;0.10;;;3.10;99.90;;;;;;4989001;28;20208;-76
2022/01/29 03:35:10;;;;;;;0.10;0.10;;;3.10;99.90;;;;;;4990314;28;20251;-75
2022/01/29 03:37:38;;;;;;;0.10;0.10;;;3.10;99.90;;;;;;4989607;28;20294;-75
2022/01/29 03:40:08;;;;;;;0.10;0.10;;;3.10;99.90;;;;;;4990547;28;20207;-74
2022/01/29 03:42:42;;;;;;;0.10;0.10;;;3.10;99.90;;;;;;4990069;28;20215;-76
2022/01/29 03:45:14;;;;;;;0.10;0.10;;;3.10;99.90;;;;;;4990089;28;20568;-75
2022/01/29 03:47:42;;;;;;;0.10;0.10;;;3.10;99.90;;;;;;4989118;28;20235;-75
2022/01/29 03:50:12;;;;;;;0.10;0.10;;;3.10;99.90;;;;;;4990715;28;20612;-75
2022/01/29 03:52:40;;;;;;;0.10;0.10;;;3.10;99.90;;;;;;4990829;28;20208;-75
2022/01/29 03:55:08;;;;;;;0.10;0.10;;;3.10;99.90;;;;;;4990327;28;20263;-75
2022/01/29 03:57:36;;;;;;;0.13;0.13;;;3.10;99.90;;;;;;4988735;28;20302;-76
2022/01/29 04:00:05;;;;;;;0.10;0.10;;;3.10;99.90;;;;;;4990183;28;20200;-75
2022/01/29 04:02:34;;;;;;;0.10;0.10;;;3.10;99.90;;;;;;4988552;28;20243;-74
2022/01/29 04:05:03;;;;;;;0.10;0.10;;;3.20;99.90;;;;;;4990983;28;20669;-75
2022/01/29 04:07:31;;;;;;;0.10;0.10;;;3.20;99.90;;;;;;4989662;28;20217;-76
2022/01/29 04:09:59;;;;;;;0.10;0.10;;;3.20;99.90;;;;;;4990252;28;20247;-75
2022/01/29 04:12:31;;;;;;;0.10;0.10;;;3.20;99.90;;;;;;4990050;28;20211;-75
2022/01/29 04:14:59;;;;;;;0.10;0.10;;;3.20;99.90;;;;;;4989979;28;20208;-74
2022/01/29 04:17:27;;;;;;;0.10;0.10;;;3.20;99.90;;;;;;4988354;28;20307;-74
2022/01/29 04:19:56;;;;;;;0.10;0.10;;;3.20;99.90;;;;;;4989551;28;20201;-76
2022/01/29 04:22:24;;;;;;;0.10;0.10;;;3.20;99.90;;;;;;4989842;28;20208;-75
2022/01/29 04:24:52;;;;;;;0.10;0.10;;;3.30;99.90;;;;;;4989834;28;20204;-76
2022/01/29 04:27:30;;;;;;;0.10;0.10;;;3.30;99.90;;;;;;4988344;28;20224;-75
2022/01/29 04:30:00;;;;;;;0.10;0.10;;;3.30;99.90;;;;;;4989176;28;20209;-75
2022/01/29 04:32:44;;;;;;;0.10;0.10;;;3.30;99.90;;;;;;4988030;28;20197;-75
2022/01/29 04:35:13;;;;;;;0.10;0.10;;;3.30;99.90;;;;;;4993442;28;20657;-75
2022/01/29 04:37:41;;;;;;;0.10;0.10;;;3.30;99.90;;;;;;4992471;28;20224;-75
2022/01/29 04:40:10;;;;;;;0.10;0.10;;;3.30;99.90;;;;;;4993325;28;20192;-74
2022/01/29 04:42:38;;;;;;;0.10;0.10;;;3.30;99.90;;;;;;4993376;28;20258;-75
2022/01/29 04:45:06;;;;;;;0.10;0.10;;;3.30;99.90;;;;;;4993561;28;20286;-74
2022/01/29 04:47:34;;;;;;;0.10;0.10;;;3.30;99.90;;;;;;4991257;28;20220;-75
2022/01/29 04:50:02;;;;;;;0.10;0.10;;;3.30;99.90;;;;;;4993564;28;20204;-75
2022/01/29 04:52:31;;;;;;;0.10;0.10;;;3.30;99.90;;;;;;4992785;28;20200;-76
2022/01/29 04:54:59;;;;;;;0.10;0.10;;;3.30;99.90;;;;;;4992736;28;20242;-75
2022/01/29 04:57:27;;;;;;;0.10;0.10;;;3.30;99.90;;;;;;4992940;28;20282;-74
2022/01/29 04:59:54;;;;;;;0.10;0.10;;;3.30;99.90;;;;;;4993642;28;20221;-75
2022/01/29 05:02:22;;;;;;;0.10;0.10;;;3.30;99.90;;;;;;4992962;28;20209;-75
2022/01/29 05:04:50;;;;;;;0.10;0.10;;;3.30;99.90;;;;;;4992865;28;20212;-76
2022/01/29 05:07:18;;;;;;;0.10;0.10;;;3.30;99.90;;;;;;4992821;28;20220;-76
2022/01/29 05:09:47;;;;;;;0.10;0.10;;;3.30;99.90;;;;;;4992609;28;20208;-75
2022/01/29 05:12:20;;;;;;;0.10;0.10;;;3.30;99.90;;;;;;4991522;28;20196;-76
2022/01/29 05:15:04;;;;;;;0.10;0.10;;;3.30;99.90;;;;;;4992731;28;20212;-75
2022/01/29 05:28:36;;;;;;;0.10;0.10;;;3.30;99.90;;;;;;4994063;28;20274;-72
2022/01/29 05:31:03;;;;;;;0.10;0.10;;;3.30;99.90;;;;;;4995321;28;20231;-75
2022/01/29 05:33:31;;;;;;;0.10;0.10;;;3.30;99.90;;;;;;4997831;28;20267;-73
2022/01/29 05:35:59;;;;;;;0.10;0.10;;;3.30;99.90;;;;;;5000583;28;20203;-74
2022/01/29 05:38:27;;;;;;;0.10;0.10;;;3.30;99.90;;;;;;4998885;28;20643;-74
2022/01/29 05:40:57;;;;;;;0.10;0.10;;;3.30;99.90;;;;;;4998803;28;20205;-74
2022/01/29 05:43:25;;;;;;;0.10;0.10;;;3.30;99.90;;;;;;4998922;28;20295;-75
2022/01/29 05:45:52;;;;;;;0.10;0.10;;;3.30;99.90;;;;;;4993798;28;20274;-73
2022/01/29 05:48:20;;;;;;;0.10;0.10;;;3.30;99.90;;;;;;4991865;28;20222;-74
2022/01/29 05:50:48;;;;;;;0.10;0.10;;;3.30;99.90;;;;;;4992738;28;20200;-74
2022/01/29 05:53:16;;;;;;;0.10;0.10;;;3.30;99.90;;;;;;4991634;28;20224;-75
2022/01/29 05:55:44;;;;;;;0.10;0.10;;;3.30;99.90;;;;;;4992045;28;20250;-76
2022/01/29 05:58:13;;;;;;;0.10;0.10;;;3.30;99.90;;;;;;4991842;28;20275;-75
2022/01/29 06:00:41;;;;;;;0.10;0.10;;;3.30;99.90;;;;;;4991659;28;20196;-75
2022/01/29 06:03:10;;;;;;;0.10;0.10;;;3.30;99.90;;;;;;4991177;28;20697;-75
2022/01/29 06:05:38;;;;;;;0.10;0.10;;;3.30;99.90;;;;;;4991798;28;20208;-75
2022/01/29 06:08:06;;;;;;;0.10;0.10;;;3.30;99.90;;;;;;4991157;28;20599;-75
2022/01/29 06:10:34;;;;;;;0.10;0.10;;;3.20;99.90;;;;;;4991490;28;20224;-75
2022/01/29 06:13:04;;;;;;;0.10;0.10;;;3.20;99.90;;;;;;4990527;28;20205;-75
2022/01/29 06:15:36;;;;;;;0.10;0.10;;;3.30;99.90;;;;;;4989767;28;20662;-74
2022/01/29 06:18:04;;;;;;;0.10;0.10;;;3.30;99.90;;;;;;4990779;28;20228;-74
2022/01/29 06:20:32;;;;;;;0.10;0.10;;;3.20;99.90;;;;;;4990620;28;20204;-75
2022/01/29 06:23:02;;;;;;;0.10;0.10;;;3.20;99.90;;;;;;4991211;28;20204;-74
2022/01/29 06:25:30;;;;;;;0.10;0.10;;;3.20;99.90;;;;;;4991145;28;20247;-75
2022/01/29 06:27:58;;;;;;;0.10;0.10;;;3.20;99.90;;;;;;4992585;28;20772;-74
2022/01/29 06:30:26;;;;;;;0.10;0.10;;;3.20;99.90;;;;;;4992769;28;20623;-74
2022/01/29 06:32:55;;;;;;;0.10;0.10;;;3.20;99.90;;;;;;4992077;28;20196;-74
2022/01/29 06:35:23;;;;;;;0.10;0.10;;;3.20;99.90;;;;;;4990892;28;20189;-75
2022/01/29 06:37:51;;;;;;;0.10;0.10;;;3.30;99.90;;;;;;4992361;28;20286;-74
2022/01/29 06:40:19;;;;;;;0.10;0.10;;;3.20;99.90;;;;;;4992647;28;20204;-75
2022/01/29 06:42:47;;;;;;;0.10;0.10;;;3.20;99.90;;;;;;4994862;28;20608;-75
2022/01/29 06:45:15;;;;;;;0.10;0.10;;;3.20;99.90;;;;;;4992550;28;20196;-75
2022/01/29 06:47:42;;;;;;;0.10;0.10;;;3.20;99.90;;;;;;4989604;28;20263;-75
2022/01/29 06:50:12;;;;;;;0.10;0.10;;;3.20;99.90;;;;;;4991096;28;20216;-74
2022/01/29 06:52:39;;;;;;;0.10;0.10;;;3.20;99.90;;;;;;4990916;28;20200;-75
2022/01/29 06:55:08;;;;;;;0.10;0.10;;;3.20;99.90;;;;;;4990791;28;20263;-75
2022/01/29 06:57:35;;;;;;;0.10;0.10;;;3.20;99.90;;;;;;4990458;28;20219;-75
2022/01/29 07:00:23;;;;;;;0.10;0.10;;;3.20;99.90;;;;;;4989316;28;20202;-75
2022/01/29 07:02:51;;;;;;;0.10;0.10;;;3.20;99.90;;;;;;4989680;28;20607;-75
2022/01/29 07:05:20;;;;;;;0.10;0.10;;;3.20;99.90;;;;;;4990307;28;20220;-75
2022/01/29 07:07:48;;;;;;;0.10;0.10;;;3.20;99.90;;;;;;4989850;28;20771;-73
2022/01/29 07:10:17;;;;;;;0.10;0.10;;;3.20;99.90;;;;;;4989746;28;20290;-74
2022/01/29 07:12:45;;;;;;;0.10;0.10;;;3.20;99.90;;;;;;4990596;28;20266;-75
2022/01/29 07:15:13;;;;;;;0.10;0.10;;;3.20;99.90;;;;;;4990619;28;20255;-75
2022/01/29 07:17:41;;;;;;;0.10;0.10;;;3.20;99.90;;;;;;4989693;28;20220;-74
2022/01/29 07:20:10;;;;;;;0.10;0.10;;;3.30;99.90;;;;;;4989120;28;20224;-74
2022/01/29 07:22:40;;;;;;;0.10;0.10;;;3.20;99.90;;;;;;4989763;28;20676;-75
2022/01/29 07:25:09;;;;;;;0.10;0.10;;;3.30;99.90;;;;;;4989824;28;20208;-74
2022/01/29 07:27:37;;;;;;;0.10;0.10;;;3.30;99.90;;;;;;4989120;28;20701;-74
2022/01/29 07:30:06;;;;;;;0.10;0.10;;;3.30;99.90;;;;;;4988019;28;20192;-74
2022/01/29 07:32:34;;;;;;;0.10;0.10;;;3.30;99.90;;;;;;4989075;28;20263;-74
2022/01/29 07:35:02;;;;;;;0.10;0.10;;;3.30;99.90;;;;;;4988803;28;20652;-73
2022/01/29 07:37:29;;;;;;;0.10;0.10;;;3.30;99.90;;;;;;4990390;28;20286;-73
2022/01/29 07:39:58;;;;;;;0.10;0.10;;;3.30;99.90;;;;;;4989809;28;20231;-73
2022/01/29 07:42:26;;;;;;;0.10;0.10;;;3.40;99.90;;;;;;4990815;28;20200;-74
2022/01/29 07:44:54;;;;;;;0.10;0.10;;;3.40;99.90;;;;;;4990833;28;20669;-73
2022/01/29 07:47:22;;;;;;;0.10;0.10;;;3.30;99.90;;;;;;4990156;28;20216;-74
2022/01/29 07:49:50;;;;;;;0.10;0.10;;;3.40;99.90;;;;;;4990377;28;20264;-73
2022/01/29 07:52:17;;;;;;;0.10;0.10;;;3.40;99.90;;;;;;4986709;28;20247;-73
2022/01/29 07:54:45;;;;;;;0.10;0.10;;;3.40;99.90;;;;;;4987470;28;20297;-73
2022/01/29 07:57:15;;;;;;;0.10;0.10;;;3.40;99.90;;;;;;4990155;28;20641;-74
2022/01/29 07:59:43;;;;;;;0.10;0.10;;;3.50;99.90;;;;;;4989737;28;20641;-73
2022/01/29 08:02:10;;;;;;;0.10;0.10;;;3.50;99.90;;;;;;4986793;28;20258;-74
2022/01/29 08:04:38;;;;;;;0.10;0.10;;;3.40;99.90;;;;;;4989017;28;20583;-73
2022/01/29 08:07:06;;;;;;;0.10;0.10;;;3.50;99.90;;;;;;4989151;28;20690;-73
2022/01/29 08:09:35;;;;;;;0.10;0.10;;;3.50;99.90;;;;;;4993672;28;20192;-74
2022/01/29 08:12:03;;;;;;;0.10;0.10;;;3.50;99.90;;;;;;4994022;28;20694;-74
2022/01/29 08:14:32;;;;;;;0.10;0.10;;;3.50;99.90;;;;;;4992744;28;20192;-74
2022/01/29 08:17:00;;;;;;;0.10;0.10;;;3.50;99.90;;;;;;4993336;28;20212;-74
2022/01/29 08:19:28;;;;;;;0.10;0.10;;;3.50;99.90;;;;;;4993060;28;20874;-71
2022/01/29 08:21:56;;;;;;;0.10;0.10;;;3.50;99.90;;;;;;4992871;28;20818;-73
2022/01/29 08:24:23;;;;;;;0.10;0.10;;;3.60;99.90;;;;;;4994089;28;20208;-74
2022/01/29 08:26:51;;;;;;;0.10;0.10;;;3.60;99.90;;;;;;4994606;28;20274;-75
2022/01/29 08:29:19;;;;;;;0.10;0.10;;;3.60;99.90;;;;;;4994596;28;20200;-73
2022/01/29 08:31:48;;;;;;;0.10;0.10;;;3.50;99.90;;;;;;4994306;28;20196;-75
2022/01/29 08:34:16;;;;;;;0.10;0.10;;;3.60;99.90;;;;;;4993268;28;20200;-74
2022/01/29 08:36:44;;;;;;;0.10;0.10;;;3.50;99.90;;;;;;4994290;28;20200;-74
2022/01/29 08:39:12;;;;;;;0.10;0.10;;;3.50;99.90;;;;;;4994815;28;20208;-74
2022/01/29 08:41:40;;;;;;;0.10;0.10;;;3.50;99.90;;;;;;4997714;28;20243;-74
2022/01/29 08:44:08;;;;;;;0.10;0.10;;;3.50;99.90;;;;;;4997941;28;20197;-74
2022/01/29 08:46:36;;;;;;;0.10;0.10;;;3.50;99.90;;;;;;4996984;28;20239;-73
2022/01/29 08:49:05;;;;;;;0.10;0.10;;;3.50;99.90;;;;;;4993733;28;20296;-73
2022/01/29 08:51:33;;;;;;;0.10;0.10;;;3.50;99.90;;;;;;4996863;28;20192;-74
2022/01/29 08:54:01;;;;;;;0.10;0.10;;;3.50;99.90;;;;;;5001034;28;20279;-73
2022/01/29 08:56:30;;;;;;;0.10;0.10;;;3.50;99.90;;;;;;4999434;28;20278;-73
2022/01/29 08:58:58;;;;;;;0.10;0.10;;;3.50;99.90;;;;;;4996735;28;20250;-74
2022/01/29 09:01:26;;;;;;;0.10;0.10;;;3.50;99.90;;;;;;4995730;28;20201;-74
2022/01/29 09:03:54;;;;;;;0.10;0.10;;;3.50;99.90;;;;;;4993531;28;20227;-73
2022/01/29 09:06:23;;;;;;;0.10;0.10;;;3.50;99.90;;;;;;4993400;28;20670;-74
2022/01/29 09:08:51;;;;;;;0.10;0.10;;;3.50;99.90;;;;;;4992921;28;20616;-74
2022/01/29 09:11:20;;;;;;;0.10;0.10;;;3.50;99.90;;;;;;4992644;28;20192;-74
2022/01/29 09:13:48;;;;;;;0.10;0.10;;;3.50;99.90;;;;;;4993242;28;20266;-74
2022/01/29 09:16:16;;;;;;;0.10;0.10;;;3.50;99.90;;;;;;4993375;28;20235;-74
2022/01/29 09:18:44;;;;;;;0.10;0.10;;;3.60;99.90;;;;;;4992145;28;20228;-74
2022/01/29 09:21:13;;;;;;;0.17;0.17;;;3.60;99.90;;;;;;4991933;28;20216;-74
2022/01/29 09:23:42;;;;;;;0.10;0.10;;;3.60;99.90;;;;;;4992262;28;20196;-74
2022/01/29 09:26:10;;;;;;;0.10;0.10;;;3.60;99.90;;;;;;4991400;28;20279;-74
2022/01/29 09:28:38;;;;;;;0.20;0.20;;;3.60;99.90;;;;;;4992212;28;20232;-74
2022/01/29 09:31:06;;;;;;;0.10;0.10;;;3.60;99.90;;;;;;4992279;28;20599;-73
2022/01/29 09:33:34;;;;;;;0.10;0.10;;;3.60;99.90;;;;;;4991191;28;20205;-73
2022/01/29 09:36:02;;;;;;;0.10;0.10;;;3.50;99.90;;;;;;4992182;28;20200;-73
2022/01/29 09:38:29;;;;;;;0.10;0.10;;;3.60;99.90;;;;;;4991676;28;20228;-74
2022/01/29 09:40:59;;;;;;;0.10;0.10;;;3.60;99.90;;;;;;4991008;28;20223;-75
2022/01/29 09:43:29;;;;;;;0.10;0.10;;;3.60;99.90;;;;;;4990270;28;20902;-73
2022/01/29 09:45:58;;;;;;;0.10;0.10;;;3.60;99.90;;;;;;4992244;28;20200;-73
2022/01/29 09:48:28;;;;;;;0.10;0.10;;;3.60;99.90;;;;;;4991245;28;20701;-73
2022/01/29 09:50:58;;;;;;;0.10;0.10;;;3.60;99.90;;;;;;4991370;28;20201;-73
2022/01/29 09:53:26;;;;;;;0.10;0.10;;;3.60;99.90;;;;;;4991442;28;20201;-73
2022/01/29 09:55:54;;;;;;;0.10;0.10;;;3.60;99.90;;;;;;4992295;28;20211;-74
2022/01/29 09:58:23;;;;;;;0.10;0.10;;;3.70;99.90;;;;;;4992560;28;20259;-74
2022/01/29 10:00:51;;;;;;;0.10;0.10;;;3.70;99.90;;;;;;4992604;28;20720;-73
2022/01/29 10:03:20;;;;;;;0.10;0.10;;;3.70;99.90;;;;;;4992406;28;20235;-73
2022/01/29 10:05:51;;;;;;;0.10;0.10;;;3.70;99.90;;;;;;4992745;28;20201;-74
2022/01/29 10:08:20;;;;;;;0.10;0.10;;;3.70;99.90;;;;;;5001355;28;20228;-73
2022/01/29 10:10:49;;;;;;;0.15;0.15;;;3.70;99.90;;;;;;4996497;28;20201;-73
2022/01/29 10:13:30;;;;;;;0.10;0.10;;;3.80;99.90;;;;;;4992587;28;20207;-73
2022/01/29 10:16:07;;;;;;;0.10;0.10;;;3.80;99.90;;;;;;4993006;28;20204;-73
2022/01/29 10:18:35;;;;;;;0.10;0.10;;;3.80;99.90;;;;;;4996015;28;20713;-73
2022/01/29 10:21:12;;;;;;;0.10;0.10;;;3.80;99.90;;;;;;4999063;28;20279;-73
2022/01/29 10:23:41;;;;;;;0.10;0.10;;;3.80;99.90;;;;;;4997219;28;20200;-73
2022/01/29 10:26:10;;;;;;;0.10;0.10;;;3.80;99.90;;;;;;4991473;28;20200;-74
2022/01/29 10:28:40;;;;;;;0.10;0.10;;;3.80;99.90;;;;;;4991679;28;21438;-73
2022/01/29 10:31:09;;;;;;;0.10;0.10;;;3.80;99.90;;;;;;4991397;28;20201;-73
2022/01/29 10:33:39;;;;;;;0.10;0.10;;;3.80;99.90;;;;;;4991766;28;20200;-73
2022/01/29 10:36:08;;;;;;;0.10;0.10;;;3.80;99.90;;;;;;4991212;28;20192;-74
2022/01/29 10:38:49;;;;;;;0.10;0.10;;;3.80;99.90;;;;;;4990976;28;20224;-73
2022/01/29 10:41:21;;;;;;;0.10;0.10;;;3.90;99.90;;;;;;4992883;28;20279;-73
2022/01/29 10:43:58;;;;;;;0.10;0.10;;;3.90;99.90;;;;;;4992163;28;20631;-73
2022/01/29 10:46:27;;;;;;;0.10;0.10;;;3.90;99.90;;;;;;4990627;28;20200;-74
2022/01/29 10:48:55;;;;;;;0.10;0.10;;;3.90;99.90;;;;;;4991671;28;20196;-73
2022/01/29 10:51:23;;;;;;;0.10;0.10;;;3.90;99.90;;;;;;4991754;28;20224;-74
2022/01/29 10:53:53;;;;;;;0.10;0.10;;;3.90;99.90;;;;;;4992651;28;20200;-73
2022/01/29 10:56:21;;;;;;;0.10;0.10;;;3.90;99.90;;;;;;4995134;28;20611;-73
2022/01/29 10:58:50;;;;;;;0.10;0.10;;;3.90;99.90;;;;;;4998390;28;20318;-73
2022/01/29 11:01:23;;;;;;;0.10;0.10;;;4.00;99.90;;;;;;5000001;28;20584;-73
2022/01/29 11:03:54;;;;;;;0.10;0.10;;;4.00;99.90;;;;;;4999636;28;20196;-73
2022/01/29 11:06:31;;;;;;;0.10;0.10;;;4.10;99.90;;;;;;4999808;28;20462;-72
2022/01/29 11:09:00;;;;;;;0.10;0.10;;;4.10;99.90;;;;;;4996257;28;20212;-74
2022/01/29 11:11:28;;;;;;;0.10;0.10;;;4.10;99.90;;;;;;4992501;28;20193;-72
2022/01/29 11:14:12;;;;;;;0.10;0.10;;;4.10;99.90;;;;;;4992383;28;20278;-73
2022/01/29 11:16:44;;;;;;;0.10;0.10;;;4.20;99.90;;;;;;4990585;28;20208;-72
2022/01/29 11:19:12;;;;;;;0.10;0.10;;;4.20;99.90;;;;;;4991138;28;20212;-73
2022/01/29 11:21:43;;;;;;;0.10;0.10;;;4.20;99.90;;;;;;4991214;28;20224;-73
2022/01/29 11:24:12;;;;;;;0.10;0.10;;;4.20;99.90;;;;;;4991107;28;20228;-73
2022/01/29 11:26:40;;;;;;;0.10;0.10;;;4.20;99.90;;;;;;4990222;28;20200;-73
2022/01/29 11:29:29;;;;;;;0.10;0.10;;;4.20;99.90;;;;;;4991010;28;20263;-72
2022/01/29 11:32:28;;;;;;;0.10;0.10;;;4.20;99.90;;;;;;4990518;28;20279;-73
2022/01/29 11:35:04;;;;;;;0.10;0.10;;;4.20;99.90;;;;;;4991013;28;20234;-73
2022/01/29 11:38:06;;;;;;;0.10;0.10;;;4.20;99.90;;;;;;4990425;28;20376;-73
2022/01/29 11:40:36;;;;;;;0.10;0.10;;;4.20;99.90;;;;;;4990483;28;20603;-73
2022/01/29 11:43:25;;;;;;;0.10;0.10;;;4.30;99.90;;;;;;4989790;28;20258;-73
2022/01/29 11:45:57;;;;;;;0.10;0.10;;;4.30;99.90;;;;;;4990396;28;20259;-73
2022/01/29 11:48:57;;;;;;;0.10;0.10;;;4.20;99.90;;;;;;4988770;28;20247;-72
2022/01/29 11:51:52;;;;;;;0.10;0.10;;;4.20;99.90;;;;;;4988574;28;20200;-73
2022/01/29 11:54:23;;;;;;;0.10;0.10;;;4.20;99.90;;;;;;4989826;28;20549;-73
2022/01/29 11:57:08;;;;;;;0.10;0.10;;;4.20;99.90;;;;;;4989825;28;20224;-73
2022/01/29 11:59:36;;;;;;;0.10;0.10;;;4.20;99.90;;;;;;4989888;28;20200;-73
2022/01/29 12:02:35;;;;;;;0.10;0.10;;;4.20;99.90;;;;;;4989102;28;20228;-73
2022/01/29 12:05:29;;;;;;;0.10;0.10;;;4.20;99.90;;;;;;4989926;28;20192;-72
2022/01/29 12:08:13;;;;;;;0.10;0.10;;;4.20;99.90;;;;;;4990136;28;20223;-72
2022/01/29 12:10:52;;;;;;;0.10;0.10;;;4.10;99.90;;;;;;4990012;28;20678;-73
2022/01/29 12:13:21;;;;;;;0.10;0.10;;;4.20;99.90;;;;;;4989035;28;20204;-73
2022/01/29 12:15:48;;;;;;;0.10;0.10;;;4.20;99.90;;;;;;4988924;28;20247;-72
2022/01/29 12:18:32;;;;;;;0.10;0.10;;;4.20;99.90;;;;;;4988028;28;20782;-72
2022/01/29 12:21:02;;;;;;;0.10;0.10;;;4.10;99.90;;;;;;4990042;28;20247;-73
2022/01/29 12:23:30;;;;;;;0.10;0.10;;;4.10;99.90;;;;;;4989566;28;20239;-74
2022/01/29 12:26:00;;;;;;;0.10;0.10;;;4.10;99.90;;;;;;4989459;28;20197;-72
2022/01/29 12:28:28;;;;;;;0.10;0.10;;;4.00;99.90;;;;;;4988549;28;20327;-72
2022/01/29 12:30:58;;;;;;;0.10;0.10;;;4.00;99.90;;;;;;4988602;28;20204;-72
2022/01/29 12:33:26;;;;;;;0.10;0.10;;;4.00;99.90;;;;;;4989497;28;20307;-72
2022/01/29 12:35:57;;;;;;;0.10;0.10;;;4.10;99.90;;;;;;4990093;28;20193;-72
2022/01/29 12:38:29;;;;;;;0.10;0.10;;;4.10;99.90;;;;;;4988574;28;20224;-72
2022/01/29 12:41:02;;;;;;;0.10;0.10;;;4.00;99.90;;;;;;4989121;28;20211;-72
2022/01/29 12:43:34;;;;;;;0.10;0.10;;;4.00;99.90;;;;;;4989416;28;20192;-72
2022/01/29 12:46:10;;;;;;;0.10;0.10;;;4.10;99.90;;;;;;4989740;28;20311;-72
2022/01/29 12:48:39;;;;;;;0.10;0.10;;;4.00;99.90;;;;;;4989626;28;20224;-72
2022/01/29 12:51:09;;;;;;;0.20;0.20;;;4.00;99.90;;;;;;4989267;28;20205;-72
2022/01/29 12:53:39;;;;;;;0.10;0.10;;;4.00;99.90;;;;;;4990408;28;20267;-72
2022/01/29 12:56:09;;;;;;;0.10;0.10;;;4.00;99.90;;;;;;4993699;28;20255;-73
2022/01/29 12:58:39;;;;;;;0.10;0.10;;;4.00;99.90;;;;;;4995222;28;20213;-72
2022/01/29 13:01:09;;;;;;;0.10;0.10;;;4.00;99.90;;;;;;4995008;28;20216;-73
2022/01/29 13:03:41;;;;;;;0.10;0.10;;;4.00;99.90;;;;;;4996318;28;20224;-72
2022/01/29 13:06:11;;;;;;;0.10;0.10;;;4.00;99.90;;;;;;4996756;28;20201;-72
2022/01/29 13:08:40;;;;;;;0.10;0.10;;;4.00;99.90;;;;;;4998257;28;20225;-72
2022/01/29 13:11:22;;;;;;;0.10;0.10;;;4.00;99.90;;;;;;4998322;28;20200;-72
2022/01/29 13:13:56;;;;;;;0.10;0.10;;;3.90;99.90;;;;;;4998436;28;20227;-72
2022/01/29 13:16:31;;;;;;;0.10;0.10;;;4.00;99.90;;;;;;4997668;28;20200;-72
2022/01/29 13:19:00;;;;;;;0.10;0.10;;;4.00;99.90;;;;;;4995957;28;20207;-72
2022/01/29 13:21:30;;;;;;;0.10;0.10;;;4.00;99.90;;;;;;4993089;28;20200;-72
2022/01/29 13:24:00;;;;;;;0.10;0.10;;;4.00;99.90;;;;;;4995136;28;20553;-72